Terminal Aerodrome Forecast
Issued by NWS Cleveland, OH

Home | Current Version | Previous Version | Text Only | Print | Product List | Glossary On
Versions: 1 2 3 4 5 6 7 8 9 10 11 12 13 14 15 16 17 18 19
000
FTUS41 KCLE 011100
TAFYNG
TAF
KYNG 011138Z 0112/0212 VRB03KT 1/2SM FG OVC001
     FM011400 07003KT 2SM BR OVC004
     FM011500 09005KT 4SM BR BKN008
     FM011600 09005KT P6SM BKN015
     FM011700 09005KT P6SM BKN025
     FM011900 09005KT P6SM BKN035
     FM012200 12003KT P6SM SCT035
     FM020600 12003KT 2SM BR SCT004=

USA.gov is the U.S. government's official web portal to all federal, state and local government web resources and services.